Producto

gcts ii metal maquina separador magnetico

  • METAR TAF : Tenerife South Airport, Tenerife South Spain

    METAR: GCTS 141700Z 07014KT 9999 FEW030 BKN080 22/14 Q1014 NOSIG . TAF: GCTS 141400Z 1415/1515 09014KT 9999 FEW030 TX27/1514Z.

  • Landing Tenerife South runway 08 (TFS GCTS) YouTube

    Oct 26, 2015 . This approach is towards Tenerife South with possible wind shear on final. 10kts increase around 600ft. Enjoy! (And don't forget to subscribe.)

  • GCTS Tenerife Sur Airport . SkyVector

    TENERIFE SOUTH Approach: 119.70. TENERIFE SOUTH Approach: 127.70. TENERIFE SSUR INFORMATION ATIS: 118.67. TENERIFE S Ground Control:.

  • Take off from Tenerife South (TFS/GCTS) at sunset. YouTube

    Nov 2, 2015 . Ryanair flight FR1961 from TFS/GCTS to SVQ/LEZL at take off. 1st November, 2015.

  • Deco and Ideas on Pinterest

    17 kitchen serving hatch/pass through ideas (Many of the GCTS apartments have. Guardar Consulta más información en littlepieceofme .

  • TenerifeSouth Airport Wikipedia

    Tenerife Sur Airport (IATA: TFS, ICAO: GCTS), previously known as Tenerife South Reina Sofia Airport, is the larger of the two international airports located on the.

Contacto
  • Hank
  • Tel: +86 158 0667 8589
  • Wechat: +86 158 0667 8589
  • Whatsapp: +86 158 0667 8589
  • Contact Now